createdAt,value
2016-02-01T00:00:46.851Z,5.2
2016-02-01T00:01:45.823Z,5.2
2016-02-01T00:02:44.809Z,5.1
2016-02-01T00:03:43.765Z,5.2
2016-02-01T00:04:42.756Z,5.2
2016-02-01T00:05:41.961Z,5.1
2016-02-01T00:06:40.948Z,5.1
2016-02-01T00:07:39.967Z,5.1
2016-02-01T00:08:41.703Z,5.1
2016-02-01T00:09:40.675Z,5.1
2016-02-01T00:10:39.912Z,5.2
2016-02-01T00:11:39.134Z,5.2
2016-02-01T00:12:38.355Z,5.2
2016-02-01T00:13:37.592Z,5.2
2016-02-01T00:14:36.814Z,5.2
2016-02-01T00:15:36.051Z,5.2
2016-02-01T00:16:35.272Z,5.2
2016-02-01T00:17:34.572Z,5.2
2016-02-01T00:18:36.294Z,5.2
2016-02-01T00:19:35.515Z,5.2
2016-02-01T00:20:34.753Z,5.2
2016-02-01T00:21:33.986Z,5.2
2016-02-01T00:22:33.207Z,5.2
2016-02-01T00:23:32.429Z,5.2
2016-02-01T00:24:31.663Z,5.2
2016-02-01T00:25:30.869Z,5.2
2016-02-01T00:26:30.075Z,5.2
2016-02-01T00:27:29.360Z,5.2
2016-02-01T00:28:31.082Z,5.2
2016-02-01T00:29:30.290Z,5.2
2016-02-01T00:30:29.506Z,5.2
2016-02-01T00:31:28.738Z,5.2
2016-02-01T00:32:27.954Z,5.2
2016-02-01T00:33:27.171Z,5.2
2016-02-01T00:34:26.418Z,5.2
2016-02-01T00:35:25.622Z,5.2
2016-02-01T00:36:24.858Z,5.2
2016-02-01T00:37:24.123Z,5.2
2016-02-01T00:38:25.859Z,5.2
2016-02-01T00:39:25.343Z,5.2
2016-02-01T00:40:24.816Z,5.2
2016-02-01T00:41:24.317Z,5.2
2016-02-01T00:42:23.788Z,5.2
2016-02-01T00:43:23.275Z,5.2
2016-02-01T00:44:22.776Z,5.2
2016-02-01T00:45:22.232Z,5.2
2016-02-01T00:46:21.719Z,5.2
2016-02-01T00:47:21.268Z,5.2
2016-02-01T00:48:23.022Z,5.2
2016-02-01T00:49:22.479Z,5.2
2016-02-01T00:50:22.232Z,5.2
2016-02-01T00:51:21.969Z,5.2
2016-02-01T00:52:21.706Z,5.2
2016-02-01T00:53:21.443Z,5.2
2016-02-01T00:54:20.934Z,5.2
2016-02-01T00:55:20.671Z,5.2
2016-02-01T00:56:20.413Z,5.2
2016-02-01T00:57:20.212Z,5.2
2016-02-01T00:58:21.948Z,5.1
2016-02-01T00:59:21.733Z,5.1
2016-02-01T01:00:21.455Z,5.1
2016-02-01T01:01:21.224Z,5.1
2016-02-01T01:02:20.915Z,5.1
2016-02-01T01:03:20.651Z,5.1
2016-02-01T01:04:20.388Z,5.1
2016-02-01T01:05:20.129Z,5.1
2016-02-01T01:06:20.146Z,5
2016-02-01T01:07:20.196Z,5
2016-02-01T01:08:21.934Z,4.9
2016-02-01T01:09:21.924Z,4.9
2016-02-01T01:11:22.180Z,4.9
2016-02-01T01:12:22.433Z,4.9
2016-02-01T01:13:22.685Z,4.9
2016-02-01T01:14:22.939Z,4.9
2016-02-01T01:15:23.191Z,4.9
2016-02-01T01:16:23.444Z,4.9
2016-02-01T01:17:23.759Z,4.9
2016-02-01T01:18:25.496Z,4.9
2016-02-01T01:19:25.749Z,4.9
2016-02-01T01:20:26.006Z,4.9
2016-02-01T01:22:27.043Z,4.8
2016-02-01T01:23:27.530Z,4.9
2016-02-01T01:24:28.048Z,4.8
2016-02-01T01:25:28.551Z,4.8
2016-02-01T01:26:29.054Z,4.8
2016-02-01T01:27:29.635Z,4.8
2016-02-01T01:28:31.371Z,4.8
2016-02-01T01:29:32.125Z,4.8
2016-02-01T01:30:32.894Z,4.8
2016-02-01T01:31:33.694Z,4.8
2016-02-01T01:32:34.430Z,4.8
2016-02-01T01:33:35.183Z,4.7
2016-02-01T01:34:35.968Z,4.8
2016-02-01T01:35:36.736Z,4.8
2016-02-01T01:36:37.551Z,4.8
2016-02-01T01:37:38.320Z,4.8
2016-02-01T01:38:40.058Z,4.8
2016-02-01T01:39:40.826Z,4.8
2016-02-01T01:40:41.582Z,4.8
2016-02-01T01:41:42.351Z,4.8
2016-02-01T01:42:43.118Z,4.8
2016-02-01T01:43:43.887Z,4.8
2016-02-01T01:44:44.671Z,4.8
2016-02-01T01:45:45.439Z,4.8
2016-02-01T01:46:46.207Z,4.8
2016-02-01T01:47:47.023Z,4.8
2016-02-01T01:48:48.745Z,4.8
2016-02-01T01:49:49.513Z,4.8
2016-02-01T01:50:50.285Z,4.8
2016-02-01T01:51:51.052Z,4.8
2016-02-01T01:52:51.837Z,4.8
2016-02-01T01:54:53.344Z,4.9
2016-02-01T01:55:54.111Z,4.8
2016-02-01T01:56:54.880Z,4.9
2016-02-01T01:57:55.711Z,4.9
2016-02-01T01:58:57.437Z,4.9
2016-02-01T01:59:58.221Z,4.9
2016-02-01T02:00:58.990Z,4.9
2016-02-01T02:01:59.743Z,4.9
2016-02-01T02:03:00.542Z,4.9
2016-02-01T02:04:01.280Z,4.9
2016-02-01T02:05:02.053Z,4.9
2016-02-01T02:06:02.588Z,4.9
2016-02-01T02:07:03.077Z,4.9
2016-02-01T02:08:03.641Z,4.9
2016-02-01T02:09:05.379Z,4.9
2016-02-01T02:10:05.632Z,4.9
2016-02-01T02:11:06.135Z,4.9
2016-02-01T02:12:06.654Z,4.9
2016-02-01T02:13:07.157Z,5
2016-02-01T02:14:07.691Z,4.9
2016-02-01T02:15:07.929Z,4.9
2016-02-01T02:16:08.182Z,4.9
2016-02-01T02:17:08.435Z,4.9
2016-02-01T02:18:08.750Z,4.9
2016-02-01T02:19:10.502Z,4.9
2016-02-01T02:20:10.990Z,4.9
2016-02-01T02:21:11.258Z,4.9
2016-02-01T02:22:11.760Z,4.9
2016-02-01T02:23:12.279Z,5
2016-02-01T02:24:12.783Z,5
2016-02-01T02:25:13.301Z,4.9
2016-02-01T02:26:13.555Z,5
2016-02-01T02:27:13.808Z,4.9
2016-02-01T02:28:14.122Z,5
2016-02-01T02:29:15.859Z,5
2016-02-01T02:30:16.365Z,5
2016-02-01T02:31:16.883Z,5
2016-02-01T02:32:17.386Z,5
2016-02-01T02:33:17.639Z,5.1
2016-02-01T02:34:17.907Z,5
2016-02-01T02:35:18.145Z,5.1
2016-02-01T02:36:18.414Z,5
2016-02-01T02:37:18.666Z,5
2016-02-01T02:38:18.981Z,5
2016-02-01T02:39:20.708Z,5
2016-02-01T02:40:20.960Z,5
2016-02-01T02:41:21.214Z,5
2016-02-01T02:42:21.466Z,5
2016-02-01T02:43:21.734Z,5
2016-02-01T02:44:21.987Z,5
2016-02-01T02:45:22.240Z,5
2016-02-01T02:46:22.480Z,5.1
2016-02-01T02:47:22.747Z,5.1
2016-02-01T02:48:23.047Z,5.1
2016-02-01T02:49:24.785Z,5.1
2016-02-01T02:50:25.038Z,5.1
2016-02-01T02:51:25.316Z,5.1
2016-02-01T02:52:25.553Z,5.1
2016-02-01T02:53:25.808Z,5.1
2016-02-01T02:54:26.061Z,5.1
2016-02-01T02:55:26.581Z,5.1
2016-02-01T02:56:27.084Z,5.1
2016-02-01T02:57:27.602Z,5.1
2016-02-01T02:58:27.901Z,5.1
2016-02-01T02:59:29.639Z,5.1
2016-02-01T03:00:29.908Z,5.1
2016-02-01T03:01:30.411Z,5.1
2016-02-01T03:02:30.695Z,5.1
2016-02-01T03:03:30.932Z,5.1
2016-02-01T03:04:31.187Z,5.1
2016-02-01T03:05:31.440Z,5.1
2016-02-01T03:06:31.694Z,5.1
2016-02-01T03:07:31.961Z,5.1
2016-02-01T03:08:32.261Z,5.1
2016-02-01T03:09:33.999Z,5.1
2016-02-01T03:10:34.266Z,5.1
2016-02-01T03:11:34.520Z,5.1
2016-02-01T03:12:34.773Z,5.2
2016-02-01T03:13:35.041Z,5.2
2016-02-01T03:14:35.280Z,5.2
2016-02-01T03:15:35.800Z,5.2
2016-02-01T03:16:36.302Z,5.2
2016-02-01T03:17:36.555Z,5.2
2016-02-01T03:18:36.870Z,5.2
2016-02-01T03:19:38.611Z,5.2
2016-02-01T03:20:38.863Z,5.2
2016-02-01T03:21:39.131Z,5.2
2016-02-01T03:22:39.383Z,5.2
2016-02-01T03:23:39.652Z,5.3
2016-02-01T03:24:40.175Z,5.3
2016-02-01T03:25:40.411Z,5.2
2016-02-01T03:26:40.665Z,5.2
2016-02-01T03:27:40.933Z,5.3
2016-02-01T03:28:41.233Z,5.3
2016-02-01T03:29:42.986Z,5.3
2016-02-01T03:30:43.224Z,5.3
2016-02-01T03:31:43.741Z,5.3
2016-02-01T03:32:44.260Z,5.3
2016-02-01T03:33:44.763Z,5.3
2016-02-01T03:34:45.032Z,5.3
2016-02-01T03:35:45.550Z,5.3
2016-02-01T03:36:46.058Z,5.3
2016-02-01T03:37:46.560Z,5.3
2016-02-01T03:38:47.142Z,5.3
2016-02-01T03:39:48.880Z,5.3
2016-02-01T03:40:49.399Z,5.3
2016-02-01T03:41:49.903Z,5.3
2016-02-01T03:42:50.671Z,5.3
2016-02-01T03:43:51.189Z,5.3
2016-02-01T03:44:51.692Z,5.3
2016-02-01T03:45:52.210Z,5.3
2016-02-01T03:46:52.729Z,5.3
2016-02-01T03:47:53.232Z,5.3
2016-02-01T03:48:53.812Z,5.3
2016-02-01T03:49:55.549Z,5.3
2016-02-01T03:50:56.301Z,5.3
2016-02-01T03:51:57.076Z,5.3
2016-02-01T03:52:57.593Z,5.3
2016-02-01T03:53:58.096Z,5.3
2016-02-01T03:54:58.865Z,5.3
2016-02-01T03:55:59.385Z,5.3
2016-02-01T03:57:00.152Z,5.3
2016-02-01T03:58:00.920Z,5.3
2016-02-01T03:59:01.735Z,5.3
2016-02-01T04:00:03.473Z,5.3
2016-02-01T04:01:03.994Z,5.3
2016-02-01T04:02:04.513Z,5.3
2016-02-01T04:03:05.281Z,5.3
2016-02-01T04:04:05.800Z,5.3
2016-02-01T04:05:06.305Z,5.2
2016-02-01T04:06:06.808Z,5.2
2016-02-01T04:07:07.326Z,5.3
2016-02-01T04:08:08.094Z,5.3
2016-02-01T04:09:08.925Z,5.2
2016-02-01T04:10:10.646Z,5.3
2016-02-01T04:11:11.415Z,5.3
2016-02-01T04:12:12.199Z,5.3
2016-02-01T04:13:12.951Z,5.3
2016-02-01T04:14:13.720Z,5.3
2016-02-01T04:15:14.488Z,5.3
2016-02-01T04:16:15.256Z,5.3
2016-02-01T04:17:16.024Z,5.3
2016-02-01T04:18:16.824Z,5.3
2016-02-01T04:19:17.624Z,5.3
2016-02-01T04:20:19.376Z,5.3
2016-02-01T04:21:20.131Z,5.3
2016-02-01T04:22:20.931Z,5.3
2016-02-01T04:23:21.668Z,5.3
2016-02-01T04:24:22.453Z,5.3
2016-02-01T04:25:23.206Z,5.3
2016-02-01T04:26:23.974Z,5.3
2016-02-01T04:27:24.759Z,5.3
2016-02-01T04:28:25.511Z,5.3
2016-02-01T04:29:26.342Z,5.3
2016-02-01T04:30:28.082Z,5.3
2016-02-01T04:31:28.850Z,5.3
2016-02-01T04:32:29.619Z,5.3
2016-02-01T04:33:30.387Z,5.3
2016-02-01T04:34:31.156Z,5.3
2016-02-01T04:35:31.924Z,5.3
2016-02-01T04:36:32.692Z,5.3
2016-02-01T04:37:33.462Z,5.3
2016-02-01T04:38:34.231Z,5.3
2016-02-01T04:39:35.061Z,5.3
2016-02-01T04:40:36.799Z,5.3
2016-02-01T04:41:37.568Z,5.3
2016-02-01T04:42:38.337Z,5.3
2016-02-01T04:43:39.105Z,5.3
2016-02-01T04:44:39.873Z,5.3
2016-02-01T04:45:40.642Z,5.3
2016-02-01T04:46:41.410Z,5.3
2016-02-01T04:48:42.947Z,5.3
2016-02-01T04:49:43.778Z,5.3
2016-02-01T04:50:45.504Z,5.3
2016-02-01T04:51:46.320Z,5.3
2016-02-01T04:52:47.042Z,5.3
2016-02-01T04:53:47.810Z,5.3
2016-02-01T04:54:48.580Z,5.3
2016-02-01T04:55:49.347Z,5.3
2016-02-01T04:56:50.116Z,5.3
2016-02-01T04:57:50.884Z,5.3
2016-02-01T04:58:51.652Z,5.3
2016-02-01T04:59:52.483Z,5.3
2016-02-01T05:00:54.236Z,5.3
2016-02-01T05:01:54.990Z,5.3
2016-02-01T05:02:55.759Z,5.3
2016-02-01T05:03:56.528Z,5.3
2016-02-01T05:04:57.563Z,5.3
2016-02-01T05:05:58.582Z,5.3
2016-02-01T05:06:59.600Z,5.3
2016-02-01T05:08:00.369Z,5.3
2016-02-01T05:09:01.167Z,5.3
2016-02-01T05:10:02.233Z,5.3
2016-02-01T05:11:03.956Z,5.3
2016-02-01T05:12:04.724Z,5.3
2016-02-01T05:13:05.507Z,5.3
2016-02-01T05:14:06.276Z,5.3
2016-02-01T05:15:07.045Z,5.3
2016-02-01T05:16:07.813Z,5.3
2016-02-01T05:17:08.581Z,5.3
2016-02-01T05:18:09.600Z,5.3
2016-02-01T05:19:10.620Z,5.3
2016-02-01T05:20:11.700Z,5.3
2016-02-01T05:21:13.453Z,5.3
2016-02-01T05:22:14.474Z,5.3
2016-02-01T05:23:15.507Z,5.3
2016-02-01T05:24:16.527Z,5.3
2016-02-01T05:25:17.544Z,5.3
2016-02-01T05:26:18.580Z,5.3
2016-02-01T05:27:19.597Z,5.3
2016-02-01T05:28:20.632Z,5.3
2016-02-01T05:29:21.915Z,5.3
2016-02-01T05:30:23.246Z,5.3
2016-02-01T05:31:24.984Z,5.3
2016-02-01T05:32:26.268Z,5.3
2016-02-01T05:33:27.553Z,5.3
2016-02-01T05:34:28.852Z,5.3
2016-02-01T05:35:30.121Z,5.3
2016-02-01T05:36:31.390Z,5.3
2016-02-01T05:37:32.674Z,5.3
2016-02-01T05:38:33.943Z,5.3
2016-02-01T05:39:35.227Z,5.3
2016-02-01T05:40:36.574Z,5.2
2016-02-01T05:41:38.294Z,5.3
2016-02-01T05:42:39.580Z,5.2
2016-02-01T05:43:40.879Z,5.2
2016-02-01T05:44:42.147Z,5.2
2016-02-01T05:45:43.417Z,5.3
2016-02-01T05:46:44.719Z,5.3
2016-02-01T05:47:45.991Z,5.3
2016-02-01T05:48:47.290Z,5.3
2016-02-01T05:49:48.543Z,5.3
2016-02-01T05:50:49.874Z,5.3
2016-02-01T05:51:51.614Z,5.3
2016-02-01T05:52:52.899Z,5.3
2016-02-01T05:53:54.183Z,5.2
2016-02-01T05:54:55.467Z,5.2
2016-02-01T05:55:56.768Z,5.2
2016-02-01T05:56:58.021Z,5.2
2016-02-01T05:57:59.306Z,5.2
2016-02-01T05:59:00.637Z,5.2
2016-02-01T06:00:01.859Z,5.2
2016-02-01T06:01:03.455Z,5.2
2016-02-01T06:02:05.197Z,5.2
2016-02-01T06:03:06.733Z,5.2
2016-02-01T06:04:08.283Z,5.2
2016-02-01T06:05:09.802Z,5.2
2016-02-01T06:06:11.335Z,5.2
2016-02-01T06:07:12.873Z,5.2
2016-02-01T06:08:14.673Z,5.2
2016-02-01T06:09:16.222Z,5.2
2016-02-01T06:10:18.006Z,5.2
2016-02-01T06:11:19.587Z,5.2
2016-02-01T06:12:21.341Z,5.2
2016-02-01T06:13:22.860Z,5.2
2016-02-01T06:14:24.660Z,5.2
2016-02-01T06:15:26.475Z,5.2
2016-02-01T06:16:28.246Z,5.2
2016-02-01T06:17:30.030Z,5.2
2016-02-01T06:18:31.830Z,5.2
2016-02-01T06:19:33.614Z,5.2
2016-02-01T06:20:35.413Z,5.2
2016-02-01T06:21:37.267Z,5.2
2016-02-01T06:22:39.004Z,5.2
2016-02-01T06:23:40.789Z,5.2
2016-02-01T06:24:42.587Z,5.2
2016-02-01T06:25:44.371Z,5.2
2016-02-01T06:26:46.187Z,5.1
2016-02-01T06:27:47.958Z,5.2
2016-02-01T06:28:49.758Z,5.1
2016-02-01T06:29:51.542Z,5.1
2016-02-01T06:30:53.342Z,5.1
2016-02-01T06:31:55.219Z,5.1
2016-02-01T06:32:56.928Z,5.1
2016-02-01T06:33:58.727Z,5.1
2016-02-01T06:35:00.511Z,5.1
2016-02-01T06:36:02.311Z,5.1
2016-02-01T06:37:04.097Z,5.1
2016-02-01T06:38:05.897Z,5
2016-02-01T06:39:07.696Z,5
2016-02-01T06:40:09.480Z,5
2016-02-01T06:41:11.265Z,5
2016-02-01T06:42:13.377Z,5
2016-02-01T06:43:15.115Z,5
2016-02-01T06:44:17.152Z,5
2016-02-01T06:45:19.202Z,4.9
2016-02-01T06:46:21.267Z,4.9
2016-02-01T06:47:23.571Z,4.9
2016-02-01T06:48:25.871Z,4.8
2016-02-01T06:49:28.186Z,4.8
2016-02-01T06:50:30.486Z,4.8
2016-02-01T06:51:32.801Z,4.8
2016-02-01T06:52:35.163Z,4.8
2016-02-01T06:53:36.901Z,4.8
2016-02-01T06:54:35.357Z,4.7
2016-02-01T06:55:33.812Z,4.7
2016-02-01T06:56:32.268Z,4.7
2016-02-01T06:57:30.727Z,4.7
2016-02-01T06:58:29.448Z,4.7
2016-02-01T06:59:28.154Z,4.7
2016-02-01T07:00:26.876Z,4.7
2016-02-01T07:01:25.597Z,4.7
2016-02-01T07:02:24.366Z,4.7
2016-02-01T07:03:26.103Z,4.7
2016-02-01T07:04:24.824Z,4.6
2016-02-01T07:05:23.530Z,4.7
2016-02-01T07:06:22.251Z,4.6
2016-02-01T07:07:20.973Z,4.6
2016-02-01T07:08:19.694Z,4.7
2016-02-01T07:09:18.400Z,4.6
2016-02-01T07:10:17.121Z,4.7
2016-02-01T07:11:15.827Z,4.6
2016-02-01T07:12:14.611Z,4.7
2016-02-01T07:13:16.350Z,4.7
2016-02-01T07:15:14.028Z,4.6
2016-02-01T07:16:12.764Z,4.6
2016-02-01T07:17:11.752Z,4.7
2016-02-01T07:18:10.702Z,4.7
2016-02-01T07:19:09.674Z,4.7
2016-02-01T07:20:08.645Z,4.7
2016-02-01T07:21:07.617Z,4.7
2016-02-01T07:22:06.386Z,4.7
2016-02-01T07:23:08.123Z,4.7
2016-02-01T07:24:07.095Z,4.7
2016-02-01T07:25:06.081Z,4.8
2016-02-01T07:26:05.053Z,4.8
2016-02-01T07:27:04.027Z,4.9
2016-02-01T07:28:02.997Z,4.9
2016-02-01T07:29:01.705Z,4.9
2016-02-01T07:30:00.442Z,4.9
2016-02-01T07:30:59.147Z,5
2016-02-01T07:31:57.916Z,5
2016-02-01T07:32:59.653Z,5.1
2016-02-01T07:33:58.365Z,5.1
2016-02-01T07:34:57.087Z,5.1
2016-02-01T07:35:55.543Z,5.1
2016-02-01T07:36:54.249Z,5.2
2016-02-01T07:37:52.721Z,5.2
2016-02-01T07:38:51.177Z,5.2
2016-02-01T07:39:49.632Z,5.3
2016-02-01T07:40:48.089Z,5.3
2016-02-01T07:41:50.466Z,5.4
2016-02-01T07:42:52.204Z,5.4
2016-02-01T07:43:54.505Z,5.5
2016-02-01T07:44:56.835Z,5.6
2016-02-01T07:45:59.120Z,5.6
2016-02-01T07:47:01.435Z,5.6
2016-02-01T07:48:03.484Z,5.7
2016-02-01T07:49:05.289Z,5.7
2016-02-01T07:50:07.073Z,5.7
2016-02-01T07:51:08.888Z,5.7
2016-02-01T07:52:10.719Z,5.7
2016-02-01T07:53:12.440Z,5.7
2016-02-01T07:54:14.241Z,5.7
2016-02-01T07:55:16.025Z,5.7
2016-02-01T07:56:17.824Z,5.7
2016-02-01T07:57:19.624Z,5.7
2016-02-01T07:58:21.408Z,5.7
2016-02-01T07:59:23.207Z,5.8
2016-02-01T08:00:24.992Z,5.7
2016-02-01T08:01:26.792Z,5.7
2016-02-01T08:02:28.637Z,5.7
2016-02-01T08:03:30.375Z,5.6
2016-02-01T08:04:32.171Z,5.6
2016-02-01T08:05:33.971Z,5.6
2016-02-01T08:06:35.740Z,5.7
2016-02-01T08:07:37.793Z,5.7
2016-02-01T08:08:39.843Z,5.7
2016-02-01T08:09:41.909Z,5.9
2016-02-01T08:10:43.693Z,5.9
2016-02-01T08:11:45.492Z,6
2016-02-01T08:12:47.339Z,6.1
2016-02-01T08:13:49.092Z,6.2
2016-02-01T08:14:50.861Z,6.3
2016-02-01T08:15:52.394Z,6.4
2016-02-01T08:16:53.678Z,6.4
2016-02-01T08:17:54.947Z,6.5
2016-02-01T08:18:55.966Z,6.5
2016-02-01T08:19:57.001Z,6.6
2016-02-01T08:20:57.754Z,6.6
2016-02-01T08:21:58.522Z,6.7
2016-02-01T08:22:59.337Z,6.7
2016-02-01T08:24:01.075Z,6.7
2016-02-01T08:25:01.844Z,6.8
2016-02-01T08:26:02.596Z,6.8
2016-02-01T08:27:03.114Z,6.9
2016-02-01T08:28:03.352Z,6.9
2016-02-01T08:29:03.620Z,6.9
2016-02-01T08:30:03.872Z,7
2016-02-01T08:31:04.125Z,7.1
2016-02-01T08:32:04.379Z,7.1
2016-02-01T08:33:04.416Z,7.2
2016-02-01T08:34:06.153Z,7.2
2016-02-01T08:35:05.890Z,7.2
2016-02-01T08:36:05.378Z,7.1
2016-02-01T08:37:04.865Z,7.2
2016-02-01T08:38:04.337Z,7.3
2016-02-01T08:39:03.809Z,7.3
2016-02-01T08:40:03.312Z,7.4
2016-02-01T08:41:02.533Z,7.5
2016-02-01T08:42:01.754Z,7.5
2016-02-01T08:43:01.038Z,7.6
2016-02-01T08:44:02.777Z,7.6
2016-02-01T08:45:01.764Z,7.7
2016-02-01T08:46:00.453Z,7.7
2016-02-01T08:46:59.159Z,7.7
2016-02-01T08:47:57.880Z,7.7
2016-02-01T08:48:56.589Z,7.6
2016-02-01T08:49:55.045Z,7.5
2016-02-01T08:50:53.751Z,7.5
2016-02-01T08:51:52.472Z,7.4
2016-02-01T08:52:51.272Z,7.4
2016-02-01T08:53:52.978Z,7.4
2016-02-01T08:54:51.669Z,7.3
2016-02-01T08:55:50.392Z,7.3
2016-02-01T08:56:49.113Z,7.3
2016-02-01T08:57:47.820Z,7.3
2016-02-01T08:58:46.775Z,7.2
2016-02-01T08:59:46.013Z,7.2
2016-02-01T09:00:45.235Z,7.2
2016-02-01T09:01:44.205Z,7.2
2016-02-01T09:02:43.474Z,7.2
2016-02-01T09:03:45.211Z,7.2
2016-02-01T09:04:44.418Z,7.3
2016-02-01T09:05:43.655Z,7.3
2016-02-01T09:06:42.877Z,7.3
2016-02-01T09:07:42.097Z,7.2
2016-02-01T09:08:41.321Z,7.2
2016-02-01T09:09:40.559Z,7.3
2016-02-01T09:10:39.764Z,7.2
2016-02-01T09:11:38.985Z,7.3
2016-02-01T09:12:38.285Z,7.3
2016-02-01T09:13:39.991Z,7.3
2016-02-01T09:14:39.213Z,7.3
2016-02-01T09:15:38.435Z,7.3
2016-02-01T09:16:37.406Z,7.3
2016-02-01T09:17:36.378Z,7.3
2016-02-01T09:18:35.333Z,7.3
2016-02-01T09:19:34.305Z,7.3
2016-02-01T09:20:33.281Z,7.3
2016-02-01T09:21:32.237Z,7.2
2016-02-01T09:22:31.260Z,7.2
2016-02-01T09:23:32.997Z,7.1
2016-02-01T09:24:32.220Z,7.1
2016-02-01T09:25:31.439Z,7.1
2016-02-01T09:26:30.660Z,7.1
2016-02-01T09:27:29.866Z,7
2016-02-01T09:28:29.354Z,7.1
2016-02-01T09:29:28.827Z,7
2016-02-01T09:30:28.316Z,7.1
2016-02-01T09:31:27.531Z,7.1
2016-02-01T09:33:28.493Z,7.1
2016-02-01T09:34:27.967Z,7.1
2016-02-01T09:35:27.425Z,7.1
2016-02-01T09:36:26.888Z,7
2016-02-01T09:37:26.370Z,7.1
2016-02-01T09:38:25.837Z,7
2016-02-01T09:39:25.318Z,7
2016-02-01T09:40:24.788Z,7
2016-02-01T09:41:24.523Z,7.1
2016-02-01T09:42:24.337Z,7
2016-02-01T09:43:26.041Z,7.1
2016-02-01T09:44:25.776Z,7.1
2016-02-01T09:45:25.543Z,7.1
2016-02-01T09:46:24.752Z,7.1
2016-02-01T09:47:23.973Z,7.1
2016-02-01T09:48:23.177Z,7
2016-02-01T09:49:22.383Z,7
2016-02-01T09:50:21.864Z,7
2016-02-01T09:51:21.336Z,7
2016-02-01T09:52:20.886Z,7
2016-02-01T09:53:22.607Z,7
2016-02-01T09:54:22.078Z,7
2016-02-01T09:55:21.550Z,6.9
2016-02-01T09:56:21.037Z,6.9
2016-02-01T09:57:20.774Z,6.9
2016-02-01T09:58:20.496Z,6.9
2016-02-01T09:59:20.233Z,6.9
2016-02-01T10:00:19.970Z,6.8
2016-02-01T10:01:19.710Z,6.8
2016-02-01T10:02:19.493Z,6.8
2016-02-01T10:03:21.215Z,6.8
2016-02-01T10:04:20.952Z,6.7
2016-02-01T10:05:20.939Z,6.7
2016-02-01T10:06:21.192Z,6.7
2016-02-01T10:07:21.430Z,6.7
2016-02-01T10:08:21.682Z,6.7
2016-02-01T10:09:21.935Z,6.7
2016-02-01T10:10:22.427Z,6.7
2016-02-01T10:11:23.195Z,6.7
2016-02-01T10:12:24.010Z,6.7
2016-02-01T10:13:25.748Z,6.8
2016-02-01T10:14:26.750Z,6.8
2016-02-01T10:15:27.800Z,6.8
2016-02-01T10:16:29.053Z,6.8
2016-02-01T10:17:30.336Z,6.8
2016-02-01T10:18:31.589Z,6.8
2016-02-01T10:19:32.890Z,6.9
2016-02-01T10:20:34.143Z,6.8
2016-02-01T10:21:35.411Z,6.8
2016-02-01T10:22:36.743Z,6.8
2016-02-01T10:23:38.481Z,6.8
2016-02-01T10:24:39.734Z,6.7
2016-02-01T10:25:41.002Z,6.7
2016-02-01T10:26:42.333Z,6.7
2016-02-01T10:27:43.555Z,6.7
2016-02-01T10:28:44.824Z,6.7
2016-02-01T10:29:46.357Z,6.7
2016-02-01T10:30:47.894Z,6.7
2016-02-01T10:31:49.678Z,6.6
2016-02-01T10:32:51.524Z,6.6
2016-02-01T10:33:53.277Z,6.6
2016-02-01T10:34:55.046Z,6.6
2016-02-01T10:35:56.824Z,6.6
2016-02-01T10:36:58.614Z,6.6
2016-02-01T10:38:00.400Z,6.6
2016-02-01T10:39:02.216Z,6.6
2016-02-01T10:40:05.454Z,6.7
2016-02-01T10:41:06.253Z,6.7
2016-02-01T10:42:08.287Z,6.7
2016-02-01T10:43:10.665Z,6.7
2016-02-01T10:44:12.362Z,6.7
2016-02-01T10:45:14.679Z,6.7
2016-02-01T10:46:16.964Z,6.7
2016-02-01T10:47:19.263Z,6.7
2016-02-01T10:48:21.578Z,6.6
2016-02-01T10:49:23.862Z,6.7
2016-02-01T10:50:26.174Z,6.6
2016-02-01T10:51:28.474Z,6.6
2016-02-01T10:52:30.773Z,6.6
2016-02-01T10:53:33.119Z,6.6
2016-02-01T10:54:34.841Z,6.7
2016-02-01T10:55:33.300Z,6.6
2016-02-01T10:56:31.755Z,6.7
2016-02-01T10:57:30.211Z,6.6
2016-02-01T10:58:28.667Z,6.7
2016-02-01T10:59:27.108Z,6.7
2016-02-01T11:00:25.830Z,6.6
2016-02-01T11:01:24.520Z,6.7
2016-02-01T11:02:23.242Z,6.7
2016-02-01T11:03:22.010Z,6.7
2016-02-01T11:04:23.747Z,6.7
2016-02-01T11:05:22.437Z,6.7
2016-02-01T11:06:21.144Z,6.7
2016-02-01T11:07:19.864Z,6.7
2016-02-01T11:08:18.585Z,6.8
2016-02-01T11:09:17.273Z,6.8
2016-02-01T11:10:15.994Z,6.8
2016-02-01T11:11:14.700Z,6.8
2016-02-01T11:12:13.409Z,6.8
2016-02-01T11:13:12.193Z,6.8
2016-02-01T11:14:13.898Z,6.8
2016-02-01T11:15:12.667Z,6.8
2016-02-01T11:16:11.314Z,6.8
2016-02-01T11:17:10.035Z,6.8
2016-02-01T11:18:08.757Z,6.9
2016-02-01T11:19:07.713Z,6.9
2016-02-01T11:20:06.669Z,6.9
2016-02-01T11:21:05.628Z,6.9
2016-02-01T11:22:04.350Z,6.9
2016-02-01T11:23:03.369Z,6.9
2016-02-01T11:24:05.107Z,6.9
2016-02-01T11:25:04.063Z,6.9
2016-02-01T11:26:03.034Z,6.9
2016-02-01T11:27:01.990Z,6.9
2016-02-01T11:28:01.211Z,7
2016-02-01T11:29:00.463Z,7
2016-02-01T11:29:59.654Z,7
2016-02-01T11:30:58.623Z,6.9
2016-02-01T11:31:57.844Z,7
2016-02-01T11:32:56.866Z,7
2016-02-01T11:33:58.587Z,7
2016-02-01T11:34:57.824Z,7
2016-02-01T11:35:57.030Z,7
2016-02-01T11:36:56.283Z,7
2016-02-01T11:37:55.474Z,7
2016-02-01T11:38:54.694Z,7.1
2016-02-01T11:39:53.933Z,7
2016-02-01T11:40:53.139Z,7
2016-02-01T11:41:52.380Z,7.1
2016-02-01T11:42:51.648Z,7.1
2016-02-01T11:43:53.370Z,7
2016-02-01T11:44:52.591Z,7.1
2016-02-01T11:45:51.830Z,7
2016-02-01T11:46:51.035Z,7.1
2016-02-01T11:47:50.255Z,7.1
2016-02-01T11:48:49.478Z,7
2016-02-01T11:49:48.699Z,7
2016-02-01T11:50:47.936Z,7
2016-02-01T11:51:47.126Z,6.9
2016-02-01T11:52:46.424Z,7
2016-02-01T11:53:48.146Z,6.9
2016-02-01T11:54:47.367Z,6.9
2016-02-01T11:55:46.838Z,7
2016-02-01T11:56:46.060Z,7
2016-02-01T11:57:45.534Z,7
2016-02-01T11:58:45.021Z,7
2016-02-01T11:59:44.524Z,6.9
2016-02-01T12:00:44.230Z,6.9
2016-02-01T12:01:43.968Z,7
2016-02-01T12:02:43.767Z,7
2016-02-01T12:03:45.473Z,7
2016-02-01T12:04:45.211Z,7
2016-02-01T12:05:44.947Z,7
2016-02-01T12:06:44.672Z,7
2016-02-01T12:07:44.424Z,7
2016-02-01T12:08:44.145Z,7
2016-02-01T12:09:43.867Z,7
2016-02-01T12:10:43.605Z,7
2016-02-01T12:11:43.341Z,7
2016-02-01T12:12:43.156Z,7
2016-02-01T12:13:44.864Z,7
2016-02-01T12:14:44.601Z,7
2016-02-01T12:15:44.337Z,7
2016-02-01T12:16:44.090Z,7
2016-02-01T12:17:43.799Z,7
2016-02-01T12:18:43.536Z,7
2016-02-01T12:19:43.273Z,7
2016-02-01T12:20:42.994Z,7
2016-02-01T12:21:42.981Z,7
2016-02-01T12:22:42.801Z,7
2016-02-01T12:23:44.506Z,7.1
2016-02-01T12:24:44.488Z,7
2016-02-01T12:25:44.492Z,7
2016-02-01T12:26:44.730Z,7
2016-02-01T12:27:44.997Z,7
2016-02-01T12:28:45.219Z,7
2016-02-01T12:29:45.472Z,7
2016-02-01T12:30:45.725Z,7.1
2016-02-01T12:31:45.961Z,7
2016-02-01T12:32:46.276Z,7
2016-02-01T12:33:47.999Z,7
2016-02-01T12:34:48.235Z,7
2016-02-01T12:35:48.488Z,7
2016-02-01T12:36:48.740Z,7
2016-02-01T12:37:48.977Z,7.1
2016-02-01T12:38:49.231Z,7
2016-02-01T12:39:49.469Z,7
2016-02-01T12:40:49.721Z,7
2016-02-01T12:41:49.974Z,7
2016-02-01T12:42:50.274Z,7
2016-02-01T12:43:51.994Z,7
2016-02-01T12:44:52.248Z,7
2016-02-01T12:45:52.469Z,7
2016-02-01T12:46:53.003Z,7
2016-02-01T12:47:53.212Z,7
2016-02-01T12:48:53.714Z,7
2016-02-01T12:49:54.218Z,7
2016-02-01T12:50:54.721Z,7
2016-02-01T12:51:55.225Z,7
2016-02-01T12:52:55.774Z,7.1
2016-02-01T12:53:57.513Z,7.1
2016-02-01T12:54:58.014Z,7
2016-02-01T12:55:58.517Z,7.1
2016-02-01T12:56:59.019Z,7
2016-02-01T12:57:59.522Z,7.1
2016-02-01T12:59:00.026Z,7
2016-02-01T13:00:00.778Z,7
2016-02-01T13:01:01.532Z,7.1
2016-02-01T13:02:02.049Z,7.1
2016-02-01T13:03:02.599Z,7.1
2016-02-01T13:04:04.327Z,7.1
2016-02-01T13:06:05.842Z,7.1
2016-02-01T13:07:06.595Z,7.1
2016-02-01T13:08:07.367Z,7.2
2016-02-01T13:09:08.120Z,7.1
2016-02-01T13:10:08.873Z,7.2
2016-02-01T13:11:09.642Z,7.2
2016-02-01T13:12:10.395Z,7.2
2016-02-01T13:13:11.209Z,7.3
2016-02-01T13:14:12.947Z,7.3
2016-02-01T13:15:13.699Z,7.3
2016-02-01T13:16:14.452Z,7.3
2016-02-01T13:17:15.205Z,7.3
2016-02-01T13:18:15.958Z,7.3
2016-02-01T13:19:16.725Z,7.3
2016-02-01T13:20:17.478Z,7.3
2016-02-01T13:21:18.231Z,7.3
2016-02-01T13:22:19.000Z,7.3
2016-02-01T13:23:19.815Z,7.3
2016-02-01T13:24:21.538Z,7.4
2016-02-01T13:25:22.307Z,7.4
2016-02-01T13:26:23.053Z,7.4
2016-02-01T13:27:23.821Z,7.3
2016-02-01T13:28:24.573Z,7.4
2016-02-01T13:29:25.343Z,7.4
2016-02-01T13:30:26.096Z,7.4
2016-02-01T13:31:26.864Z,7.4
2016-02-01T13:32:27.618Z,7.4
2016-02-01T13:34:30.143Z,7.5
2016-02-01T13:35:30.896Z,7.5
2016-02-01T13:36:31.664Z,7.5
2016-02-01T13:37:32.417Z,7.6
2016-02-01T13:38:33.173Z,7.6
2016-02-01T13:39:33.940Z,7.6
2016-02-01T13:40:34.694Z,7.6
2016-02-01T13:41:35.447Z,7.6
2016-02-01T13:42:36.465Z,7.6
2016-02-01T13:43:37.280Z,7.6
2016-02-01T13:44:39.003Z,7.7
2016-02-01T13:45:39.756Z,7.7
2016-02-01T13:46:40.525Z,7.7
2016-02-01T13:47:41.277Z,7.7
2016-02-01T13:48:42.046Z,7.7
2016-02-01T13:49:42.799Z,7.7
2016-02-01T13:50:43.552Z,7.7
2016-02-01T13:51:44.305Z,7.7
2016-02-01T13:52:45.073Z,7.8
2016-02-01T13:53:45.891Z,7.8
2016-02-01T13:54:47.612Z,7.8
2016-02-01T13:55:48.382Z,7.8
2016-02-01T13:56:49.399Z,7.8
2016-02-01T13:57:50.395Z,7.8
2016-02-01T13:58:51.398Z,7.9
2016-02-01T13:59:52.416Z,7.9
2016-02-01T14:00:53.450Z,8
2016-02-01T14:01:54.468Z,8
2016-02-01T14:02:55.471Z,8
2016-02-01T14:03:56.286Z,8
2016-02-01T14:04:58.024Z,8
2016-02-01T14:05:59.028Z,8.1
2016-02-01T14:07:00.045Z,8.1
2016-02-01T14:08:01.048Z,8.1
2016-02-01T14:09:02.068Z,8